Time;durP1;ratioP1;P1;durP2;ratioP2;P2;SDS_P1;SDS_P2;PMS_P1;PMS_P2;Temp;Humidity;BMP_temperature;BMP_pressure;BME280_temperature;BME280_humidity;BME280_pressure;Samples;Min_cycle;Max_cycle;Signal;HPM_P1;HPM_P2
2022/10/05 00:01:59;;;;;;;2.13;1.50;;;;;;;16.02;95.01;101772.09;5066580;28;20035;-62
2022/10/05 00:04:27;;;;;;;6.60;1.98;;;;;;;16.01;94.72;101771.22;5066862;28;20095;-63
2022/10/05 00:07:00;;;;;;;2.92;1.30;;;;;;;16.03;94.23;101772.00;5067559;28;20023;-63
2022/10/05 00:09:29;;;;;;;4.00;1.40;;;;;;;16.10;93.73;101769.94;5066754;28;20127;-61
2022/10/05 00:11:54;;;;;;;4.22;1.50;;;;;;;16.12;93.70;101764.56;5067695;28;20033;-61
2022/10/05 00:14:25;;;;;;;2.80;1.45;;;;;;;16.08;93.88;101755.88;5067838;28;20520;-62
2022/10/05 00:16:50;;;;;;;1.70;1.60;;;;;;;16.03;93.64;101752.53;5066171;28;20033;-61
2022/10/05 00:19:30;;;;;;;3.35;1.40;;;;;;;15.94;93.97;101753.75;5068540;28;20112;-61
2022/10/05 00:22:05;;;;;;;6.82;1.23;;;;;;;15.91;93.91;101757.41;5065236;28;20028;-61
2022/10/05 00:24:30;;;;;;;4.78;1.40;;;;;;;15.90;93.95;101753.00;5064837;28;20112;-61
2022/10/05 00:26:59;;;;;;;6.43;1.40;;;;;;;15.89;93.93;101751.28;5067744;28;20095;-61
2022/10/05 00:29:25;;;;;;;2.17;1.25;;;;;;;15.89;94.17;101742.44;5067025;28;20029;-62
2022/10/05 00:31:50;;;;;;;4.85;1.27;;;;;;;15.81;94.63;101748.09;5067832;28;20037;-64
2022/10/05 00:34:16;;;;;;;2.13;1.30;;;;;;;15.77;94.86;101747.34;5068028;28;20478;-63
2022/10/05 00:36:41;;;;;;;4.18;1.40;;;;;;;15.75;94.57;101748.34;5066307;28;20282;-62
2022/10/05 00:39:07;;;;;;;4.35;1.50;;;;;;;15.77;94.64;101754.44;5066626;28;20135;-61
2022/10/05 00:41:55;;;;;;;2.03;1.60;;;;;;;15.80;94.26;101751.66;5066489;28;20542;-60
2022/10/05 00:44:26;;;;;;;1.98;1.20;;;;;;;15.80;93.97;101759.63;5066249;28;20479;-64
2022/10/05 00:46:54;;;;;;;3.17;1.15;;;;;;;15.88;94.02;101743.38;5067146;28;20043;-62
2022/10/05 00:49:48;;;;;;;1.55;1.20;;;;;;;15.78;94.16;101732.28;5066584;28;20108;-61
2022/10/05 00:52:41;;;;;;;1.30;1.13;;;;;;;15.82;94.09;101725.91;5066045;28;20024;-62
2022/10/05 00:55:15;;;;;;;3.40;1.55;;;;;;;15.81;94.15;101726.84;5067752;28;20822;-62
2022/10/05 00:57:59;;;;;;;1.55;1.27;;;;;;;15.83;94.17;101719.66;5065465;28;20395;-62
2022/10/05 01:00:25;;;;;;;2.42;1.33;;;;;;;15.84;94.14;101710.78;5066911;28;20040;-62
2022/10/05 01:03:01;;;;;;;2.95;1.42;;;;;;;15.86;93.84;101703.59;5066196;28;20017;-62
2022/10/05 01:06:09;;;;;;;2.28;1.23;;;;;;;15.79;93.66;101696.81;5069392;28;20032;-62
2022/10/05 01:09:01;;;;;;;4.60;1.35;;;;;;;15.72;93.75;101700.66;5043765;28;20381;-61
2022/10/05 01:11:32;;;;;;;2.65;1.40;;;;;;;15.73;93.57;101689.97;5070954;28;20700;-62
2022/10/05 01:14:08;;;;;;;3.40;1.17;;;;;;;15.70;93.61;101679.47;5122058;22;20059;-61
2022/10/05 01:16:52;;;;;;;3.45;1.40;;;;;;;15.64;93.08;101672.63;5030817;28;20037;-61
2022/10/05 01:19:44;;;;;;;2.30;1.30;;;;;;;15.75;92.42;101676.63;5031091;28;20029;-63
2022/10/05 01:22:16;;;;;;;2.28;1.30;;;;;;;15.77;92.42;101672.06;5029246;28;20047;-63
2022/10/05 01:25:12;;;;;;;3.08;1.27;;;;;;;15.65;93.30;101674.34;5030573;28;20046;-62
2022/10/05 01:27:49;;;;;;;3.42;1.60;;;;;;;15.72;93.70;101672.31;5030472;28;20614;-63
2022/10/05 01:30:21;;;;;;;2.92;1.55;;;;;;;15.69;94.48;101664.47;5030867;28;20040;-61
2022/10/05 01:33:01;;;;;;;6.07;2.55;;;;;;;15.70;95.18;101670.63;5026122;28;20033;-62
2022/10/05 01:35:48;;;;;;;4.82;2.80;;;;;;;15.69;95.93;101663.59;5030254;28;20109;-62
2022/10/05 01:38:20;;;;;;;6.60;3.05;;;;;;;15.61;96.97;101672.75;5029181;28;20087;-63
2022/10/05 01:40:45;;;;;;;6.53;2.80;;;;;;;15.61;97.13;101664.78;5030853;28;20025;-62
2022/10/05 01:43:19;;;;;;;4.90;3.25;;;;;;;15.58;97.88;101667.56;5029935;28;20467;-62
2022/10/05 01:45:59;;;;;;;7.70;3.47;;;;;;;15.54;98.32;101664.16;5030886;28;20026;-63
2022/10/05 01:48:44;;;;;;;6.20;3.63;;;;;;;15.48;98.80;101659.13;5028912;28;20025;-62
2022/10/05 01:51:31;;;;;;;9.68;4.10;;;;;;;15.44;99.20;101648.69;5028797;28;20168;-62
2022/10/05 01:54:19;;;;;;;7.20;3.88;;;;;;;15.45;99.09;101642.44;5023890;28;20531;-62
2022/10/05 01:57:05;;;;;;;10.23;4.07;;;;;;;15.45;99.35;101631.81;5029869;28;20029;-61
2022/10/05 01:59:42;;;;;;;8.45;4.22;;;;;;;15.43;99.55;101631.00;5027026;28;20588;-61
2022/10/05 02:02:10;;;;;;;7.63;4.22;;;;;;;15.37;100.00;101626.81;5029205;28;20033;-60
2022/10/05 02:04:43;;;;;;;6.07;3.97;;;;;;;15.37;100.00;101627.69;5028610;28;20427;-62
2022/10/05 02:07:17;;;;;;;8.88;4.68;;;;;;;15.38;99.88;101626.75;5010589;28;20210;-61
2022/10/05 02:09:46;;;;;;;5.97;3.67;;;;;;;15.39;99.59;101631.13;5008264;28;20115;-63
2022/10/05 02:12:16;;;;;;;8.85;4.00;;;;;;;15.35;100.00;101623.38;4991910;28;20038;-61
2022/10/05 02:14:43;;;;;;;13.05;4.07;;;;;;;15.36;100.00;101611.81;5009356;28;20054;-62
2022/10/05 02:17:16;;;;;;;6.13;4.10;;;;;;;15.33;100.00;101604.00;5010308;28;20524;-63
2022/10/05 02:19:44;;;;;;;9.98;3.67;;;;;;;15.30;100.00;101586.41;5029271;28;20041;-62
2022/10/05 02:22:25;;;;;;;5.15;3.60;;;;;;;15.21;100.00;101595.63;5027198;28;20414;-62
2022/10/05 02:24:55;;;;;;;4.63;3.50;;;;;;;15.19;100.00;101588.63;5028471;28;20029;-63
2022/10/05 02:27:24;;;;;;;6.35;3.63;;;;;;;15.15;100.00;101590.56;5018006;28;20097;-63
2022/10/05 02:29:52;;;;;;;5.95;3.72;;;;;;;15.12;100.00;101598.63;5016186;28;20029;-62
2022/10/05 02:32:27;;;;;;;5.57;3.58;;;;;;;15.16;100.00;101602.88;5027191;28;20022;-63
2022/10/05 02:34:58;;;;;;;6.97;3.88;;;;;;;15.16;100.00;101592.28;5026938;28;20029;-61
2022/10/05 02:37:40;;;;;;;6.07;3.85;;;;;;;15.15;100.00;101594.06;5026735;28;20036;-62
2022/10/05 02:40:24;;;;;;;6.28;3.95;;;;;;;15.10;100.00;101608.44;5028075;28;20060;-65
2022/10/05 02:42:49;;;;;;;6.85;4.10;;;;;;;15.11;100.00;101610.19;5027250;28;20034;-63
2022/10/05 02:45:31;;;;;;;7.20;4.10;;;;;;;15.11;100.00;101589.81;5026890;28;20079;-60
2022/10/05 02:48:11;;;;;;;16.35;4.70;;;;;;;15.15;100.00;101599.38;5008370;28;20428;-60
2022/10/05 02:50:47;;;;;;;9.68;4.10;;;;;;;15.15;100.00;101591.41;5023015;28;20807;-61
2022/10/05 02:53:25;;;;;;;6.55;4.53;;;;;;;15.13;100.00;101603.88;5023610;28;20041;-61
2022/10/05 02:56:13;;;;;;;5.03;4.03;;;;;;;15.19;100.00;101593.94;5007096;28;20109;-62
2022/10/05 02:58:51;;;;;;;8.30;3.65;;;;;;;15.18;100.00;101600.19;5007514;28;20040;-64
2022/10/05 03:01:31;;;;;;;6.65;4.15;;;;;;;15.21;100.00;101597.41;5027208;28;20017;-61
2022/10/05 03:04:10;;;;;;;5.45;4.50;;;;;;;15.19;100.00;101593.94;5026139;28;20065;-62
2022/10/05 03:06:50;;;;;;;5.50;3.47;;;;;;;15.23;100.00;101595.56;5026197;28;20025;-62
2022/10/05 03:09:16;;;;;;;6.55;3.67;;;;;;;15.25;100.00;101596.34;5027730;28;20116;-64
2022/10/05 03:11:57;;;;;;;9.07;4.28;;;;;;;15.21;100.00;101594.75;5027102;28;20563;-62
2022/10/05 03:14:26;;;;;;;7.90;3.65;;;;;;;15.19;100.00;101597.47;5027466;28;20057;-63
2022/10/05 03:17:13;;;;;;;6.05;3.78;;;;;;;15.21;100.00;101585.00;5027268;28;20491;-62
2022/10/05 03:20:08;;;;;;;5.57;3.35;;;;;;;15.23;100.00;101583.13;5027844;28;20475;-62
2022/10/05 03:22:47;;;;;;;12.27;3.95;;;;;;;15.27;100.00;101590.03;4996427;28;20042;-61
2022/10/05 03:25:21;;;;;;;6.13;3.75;;;;;;;15.25;100.00;101591.91;5008533;28;20030;-62
2022/10/05 03:27:57;;;;;;;8.48;3.90;;;;;;;15.21;100.00;101586.78;5009078;28;20420;-63
2022/10/05 03:30:24;;;;;;;6.43;3.60;;;;;;;15.15;100.00;101585.25;5006927;28;20109;-62
2022/10/05 03:32:55;;;;;;;8.45;3.60;;;;;;;15.19;100.00;101594.81;5025546;28;20172;-63
2022/10/05 03:35:31;;;;;;;5.93;3.60;;;;;;;15.22;99.89;101593.81;5027908;28;20060;-62
2022/10/05 03:37:59;;;;;;;4.45;3.67;;;;;;;15.20;100.00;101582.41;5026682;28;20029;-62
2022/10/05 03:40:33;;;;;;;9.25;3.63;;;;;;;15.19;100.00;101585.97;5028346;28;20030;-63
2022/10/05 03:43:11;;;;;;;6.68;3.58;;;;;;;15.08;100.00;101579.31;5027280;28;20022;-62
2022/10/05 03:45:46;;;;;;;6.90;3.85;;;;;;;15.11;100.00;101578.34;5026273;28;20029;-62
2022/10/05 03:48:18;;;;;;;7.25;3.92;;;;;;;15.14;99.95;101581.72;5028268;28;20025;-61
2022/10/05 03:50:51;;;;;;;8.27;4.40;;;;;;;15.19;100.00;101576.22;5026409;28;20621;-61
2022/10/05 03:53:27;;;;;;;7.22;4.03;;;;;;;15.23;99.87;101582.28;5010108;28;20026;-62
2022/10/05 03:55:59;;;;;;;5.68;4.50;;;;;;;15.22;99.97;101575.22;5006985;28;20128;-62
2022/10/05 03:58:28;;;;;;;6.70;4.68;;;;;;;15.22;99.77;101576.09;5022330;28;20060;-62
2022/10/05 04:00:59;;;;;;;5.63;3.97;;;;;;;15.15;99.52;101574.63;5026372;28;20033;-61
2022/10/05 04:03:40;;;;;;;6.15;3.30;;;;;;;15.18;99.20;101569.19;5025926;28;20025;-63
2022/10/05 04:06:15;;;;;;;4.90;3.78;;;;;;;15.22;98.64;101567.25;5026007;28;20032;-62
2022/10/05 04:08:59;;;;;;;5.90;3.88;;;;;;;15.25;98.35;101561.81;5025683;28;20388;-63
2022/10/05 04:11:36;;;;;;;4.30;3.10;;;;;;;15.23;98.29;101555.72;5027697;28;20333;-64
2022/10/05 04:14:14;;;;;;;5.22;3.10;;;;;;;15.24;98.36;101562.75;5026065;28;20580;-60
2022/10/05 04:16:43;;;;;;;3.75;3.45;;;;;;;15.21;98.29;101563.75;5027690;28;20033;-62
2022/10/05 04:19:09;;;;;;;7.25;3.60;;;;;;;15.27;98.26;101557.31;5026927;28;20044;-62
2022/10/05 04:21:42;;;;;;;4.53;3.63;;;;;;;15.24;98.22;101553.00;5026499;28;20200;-61
2022/10/05 04:24:18;;;;;;;5.93;3.50;;;;;;;15.25;98.38;101561.81;5028155;28;20026;-64
2022/10/05 04:26:53;;;;;;;5.22;3.15;;;;;;;15.19;98.68;101564.72;5026603;28;20096;-62
2022/10/05 04:29:30;;;;;;;7.18;3.47;;;;;;;15.18;98.55;101563.00;5027840;28;20034;-63
2022/10/05 04:32:01;;;;;;;3.40;3.10;;;;;;;15.24;98.25;101560.09;5027770;28;20033;-62
2022/10/05 04:34:42;;;;;;;3.88;2.90;;;;;;;15.26;97.68;101545.00;5027733;28;20034;-63
2022/10/05 04:37:15;;;;;;;3.05;2.58;;;;;;;15.23;97.33;101551.25;5026952;28;20030;-62
2022/10/05 04:39:50;;;;;;;2.33;2.08;;;;;;;15.34;96.78;101539.31;5027577;28;20048;-61
2022/10/05 04:42:27;;;;;;;2.97;2.05;;;;;;;15.28;96.85;101533.38;5027856;28;20029;-64
2022/10/05 04:45:06;;;;;;;2.67;2.00;;;;;;;15.33;96.12;101530.50;5020192;28;20017;-64
2022/10/05 04:47:50;;;;;;;2.80;1.90;;;;;;;15.32;96.40;101534.06;5028899;28;20032;-64
2022/10/05 04:50:27;;;;;;;2.45;1.60;;;;;;;15.29;96.13;101526.25;5028854;28;20464;-61
2022/10/05 04:52:59;;;;;;;9.10;2.03;;;;;;;15.31;96.05;101534.16;5028777;28;20057;-62
2022/10/05 04:55:39;;;;;;;2.33;1.77;;;;;;;15.34;95.55;101526.94;5029458;28;20533;-62
2022/10/05 04:58:35;;;;;;;2.55;1.65;;;;;;;15.29;95.58;101520.94;5027905;28;20364;-62
2022/10/05 05:01:07;;;;;;;1.30;1.20;;;;;;;15.23;95.54;101518.56;5017747;28;20029;-63
2022/10/05 05:03:45;;;;;;;1.45;1.33;;;;;;;15.26;95.30;101508.66;5028916;28;20645;-63
2022/10/05 05:06:35;;;;;;;1.52;1.40;;;;;;;15.20;95.36;101508.06;5028473;28;20033;-64
2022/10/05 05:09:18;;;;;;;2.00;1.42;;;;;;;15.26;95.27;101511.31;5030350;28;20514;-63
2022/10/05 05:11:55;;;;;;;1.33;1.23;;;;;;;15.29;95.23;101512.97;5030971;28;20036;-64
2022/10/05 05:14:54;;;;;;;4.80;1.50;;;;;;;15.26;95.45;101510.47;5029412;28;20400;-64
2022/10/05 05:17:25;;;;;;;3.40;1.27;;;;;;;15.19;96.06;101512.50;5029695;28;20061;-63
2022/10/05 05:20:00;;;;;;;3.47;1.30;;;;;;;15.09;96.38;101501.44;5030364;28;20025;-63
2022/10/05 05:22:51;;;;;;;1.60;1.30;;;;;;;15.13;95.87;101500.38;5030489;28;20064;-63
2022/10/05 05:25:29;;;;;;;1.92;1.45;;;;;;;15.05;96.67;101505.13;5029142;28;20036;-63
2022/10/05 05:28:25;;;;;;;2.83;1.17;;;;;;;14.98;96.53;101507.19;5029876;28;20463;-63
2022/10/05 05:31:01;;;;;;;2.10;1.00;;;;;;;15.03;96.30;101504.34;5028371;28;20041;-62
2022/10/05 05:33:42;;;;;;;2.33;1.20;;;;;;;15.05;96.22;101499.81;5028946;28;20044;-63
2022/10/05 05:36:47;;;;;;;1.75;1.10;;;;;;;15.08;95.93;101505.00;5029551;28;20033;-64
2022/10/05 05:39:16;;;;;;;2.05;1.08;;;;;;;15.09;95.89;101505.88;5011209;28;20373;-63
2022/10/05 05:42:07;;;;;;;4.75;1.05;;;;;;;15.08;96.01;101505.00;5021579;28;20088;-60
2022/10/05 05:44:42;;;;;;;3.28;1.23;;;;;;;15.11;95.51;101504.88;5019047;28;20040;-64
2022/10/05 05:47:17;;;;;;;2.90;0.95;;;;;;;15.11;95.61;101496.06;5026937;28;20549;-64
2022/10/05 05:49:53;;;;;;;1.73;1.10;;;;;;;15.13;95.73;101496.84;5016998;28;20036;-63
2022/10/05 05:52:21;;;;;;;1.20;0.90;;;;;;;15.11;95.88;101488.94;5039455;28;20087;-63
2022/10/05 05:54:56;;;;;;;1.65;1.20;;;;;;;15.13;95.95;101499.50;5026790;28;20033;-61
2022/10/05 05:57:36;;;;;;;4.45;1.08;;;;;;;15.18;95.74;101496.66;5022777;28;20109;-62
2022/10/05 06:00:07;;;;;;;1.83;1.23;;;;;;;15.15;96.03;101495.00;5026027;28;20104;-61
2022/10/05 06:02:46;;;;;;;1.50;1.10;;;;;;;15.18;96.03;101504.63;5028402;28;20057;-64
2022/10/05 06:05:40;;;;;;;2.05;1.67;;;;;;;15.22;95.80;101500.91;5026445;28;20076;-61
2022/10/05 06:08:25;;;;;;;3.25;1.33;;;;;;;15.20;96.09;101508.06;5027570;28;20017;-65
2022/10/05 06:10:54;;;;;;;1.58;1.20;;;;;;;15.24;95.92;101504.34;5027809;28;20056;-63
2022/10/05 06:13:36;;;;;;;5.00;1.40;;;;;;;15.29;96.16;101512.97;5026257;28;20049;-62
2022/10/05 06:16:11;;;;;;;1.30;1.20;;;;;;;15.30;96.25;101504.09;5028707;28;20026;-63
2022/10/05 06:18:42;;;;;;;2.35;1.25;;;;;;;15.26;96.36;101508.66;5025624;28;20388;-62
2022/10/05 06:21:17;;;;;;;2.15;1.42;;;;;;;15.30;96.48;101504.09;5026394;28;20456;-63
2022/10/05 06:23:49;;;;;;;2.92;1.67;;;;;;;15.33;96.25;101503.09;5017445;28;20351;-64
2022/10/05 06:26:21;;;;;;;2.20;1.83;;;;;;;15.33;96.35;101505.75;5028953;28;20021;-62
2022/10/05 06:28:50;;;;;;;2.60;1.75;;;;;;;15.35;96.70;101506.56;5029109;28;20064;-62
2022/10/05 06:31:28;;;;;;;2.25;1.50;;;;;;;15.37;96.56;101510.88;5027523;28;20488;-60
2022/10/05 06:34:02;;;;;;;1.95;1.42;;;;;;;15.43;96.57;101508.84;5027760;28;20041;-62
2022/10/05 06:36:43;;;;;;;2.35;1.88;;;;;;;15.43;96.45;101503.53;5026170;28;20079;-63
2022/10/05 06:39:22;;;;;;;4.07;2.10;;;;;;;15.45;96.47;101507.00;5026898;28;20563;-62
2022/10/05 06:42:09;;;;;;;2.75;1.77;;;;;;;15.50;96.37;101515.66;5028706;28;20392;-62
2022/10/05 06:44:45;;;;;;;3.22;1.70;;;;;;;15.44;96.42;101513.25;5027220;28;20384;-62
2022/10/05 06:47:37;;;;;;;2.17;1.58;;;;;;;15.45;96.50;101517.63;5027538;28;20043;-63
2022/10/05 06:50:17;;;;;;;3.15;2.10;;;;;;;15.48;96.38;101518.38;5024017;28;20067;-61
2022/10/05 06:53:12;;;;;;;3.80;1.83;;;;;;;15.43;96.82;101514.16;5026610;28;20025;-61
2022/10/05 06:56:21;;;;;;;2.30;2.05;;;;;;;15.50;96.47;101518.31;5019141;28;20148;-62
2022/10/05 06:59:13;;;;;;;4.15;1.65;;;;;;;15.53;96.42;101520.78;5019768;28;20113;-63
2022/10/05 07:02:05;;;;;;;2.05;1.80;;;;;;;15.53;96.64;101523.44;5024257;28;20034;-61
2022/10/05 07:04:54;;;;;;;1.70;1.60;;;;;;;15.50;96.76;101519.16;5025258;28;20021;-66
2022/10/05 07:07:57;;;;;;;7.97;1.83;;;;;;;15.51;96.49;101512.06;5023137;28;20041;-62
2022/10/05 07:10:48;;;;;;;2.40;1.92;;;;;;;15.47;96.97;101502.50;4988841;28;20468;-63
2022/10/05 07:13:38;;;;;;;2.67;1.60;;;;;;;15.51;96.99;101509.41;5025621;28;20046;-62
2022/10/05 07:16:41;;;;;;;2.65;1.80;;;;;;;15.54;96.97;101498.63;5027002;28;20033;-62
2022/10/05 07:19:18;;;;;;;5.50;1.60;;;;;;;15.58;96.44;101505.53;5026857;28;20452;-62
2022/10/05 07:22:08;;;;;;;5.53;1.60;;;;;;;15.58;95.94;101502.88;5024969;28;20034;-63
2022/10/05 07:24:46;;;;;;;2.67;1.60;;;;;;;15.60;96.35;101511.66;5025340;28;20030;-62
2022/10/05 07:27:23;;;;;;;3.28;1.70;;;;;;;15.61;96.11;101505.41;5024383;28;20029;-62
2022/10/05 07:30:05;;;;;;;2.55;1.58;;;;;;;15.65;96.34;101499.00;5023921;28;20060;-62
2022/10/05 07:32:43;;;;;;;3.33;1.60;;;;;;;15.72;96.05;101499.63;5023579;28;20025;-62
2022/10/05 07:37:53;;;;;;;2.92;1.67;;;;;;;15.75;95.83;101490.63;5026706;28;20030;-61
2022/10/05 07:38:04;;;;;;;4.03;1.75;;;;;;;15.78;95.57;101493.16;5022205;28;20142;-62
2022/10/05 07:40:36;;;;;;;2.05;1.90;;;;;;;15.71;96.12;101508.50;5025543;28;20033;-60
2022/10/05 07:43:29;;;;;;;3.88;2.10;;;;;;;15.65;96.62;101504.31;5025040;28;20032;-61
2022/10/05 07:46:22;;;;;;;3.08;1.77;;;;;;;15.73;96.42;101495.13;5027396;28;20033;-62
2022/10/05 07:49:01;;;;;;;4.80;2.40;;;;;;;15.72;96.90;101488.09;5027039;28;20028;-64
2022/10/05 07:51:36;;;;;;;3.05;1.80;;;;;;;15.76;96.00;101493.22;5024308;28;20392;-62
2022/10/05 07:54:22;;;;;;;3.08;2.08;;;;;;;15.82;95.71;101493.84;5023834;28;20558;-63
2022/10/05 07:56:54;;;;;;;2.88;2.30;;;;;;;15.71;96.52;101491.72;5025552;28;20029;-62
2022/10/05 07:59:34;;;;;;;3.17;2.40;;;;;;;15.79;95.97;101481.59;5025121;28;20022;-62
2022/10/05 08:02:18;;;;;;;5.95;2.08;;;;;;;15.79;95.79;101486.91;5025448;28;20467;-61
2022/10/05 08:04:50;;;;;;;5.55;2.20;;;;;;;15.84;96.03;101487.56;5025273;28;20017;-61
2022/10/05 08:07:16;;;;;;;5.50;2.30;;;;;;;15.87;95.56;101476.75;5026492;28;20131;-61
2022/10/05 08:09:44;;;;;;;7.82;2.17;;;;;;;15.93;95.46;101480.97;5026023;28;20025;-64
2022/10/05 08:12:19;;;;;;;7.75;1.98;;;;;;;15.87;95.42;101476.75;5027818;28;20075;-60
2022/10/05 08:14:56;;;;;;;4.47;2.35;;;;;;;15.89;95.45;101469.59;5031393;28;20045;-61
2022/10/05 08:17:38;;;;;;;4.65;2.40;;;;;;;15.89;95.13;101480.22;5029516;28;20029;-64
2022/10/05 08:20:10;;;;;;;3.15;2.33;;;;;;;15.99;95.07;101480.72;5028168;28;20026;-64
2022/10/05 08:22:45;;;;;;;7.25;2.58;;;;;;;15.78;96.38;101478.06;5029984;28;20053;-62
2022/10/05 08:25:19;;;;;;;3.03;2.33;;;;;;;15.87;96.35;101476.75;5028701;28;20434;-61
2022/10/05 08:28:28;;;;;;;5.13;2.47;;;;;;;16.01;94.96;101469.97;5029443;28;20587;-61
2022/10/05 08:31:12;;;;;;;2.63;2.42;;;;;;;16.09;94.36;101481.13;5012151;28;20037;-63
2022/10/05 08:33:52;;;;;;;4.30;2.10;;;;;;;16.17;94.64;101460.34;5030045;28;20037;-62
2022/10/05 08:36:22;;;;;;;3.47;2.00;;;;;;;16.08;94.91;101470.56;5027818;28;20037;-60
2022/10/05 08:38:50;;;;;;;2.15;1.98;;;;;;;16.19;94.17;101464.75;5028173;28;20476;-63
2022/10/05 08:41:55;;;;;;;2.65;2.03;;;;;;;16.24;93.68;101462.72;5030042;28;20033;-62
2022/10/05 08:44:39;;;;;;;5.68;2.05;;;;;;;16.36;93.16;101459.47;5022464;28;20084;-63
2022/10/05 08:47:33;;;;;;;5.28;2.00;;;;;;;16.47;92.69;101458.09;5029922;28;20542;-62
2022/10/05 08:50:41;;;;;;;2.25;1.80;;;;;;;16.53;91.73;101450.66;5029352;28;20028;-61
2022/10/05 08:53:15;;;;;;;5.35;1.60;;;;;;;16.62;91.30;101446.66;5030124;28;20037;-62
2022/10/05 08:56:02;;;;;;;1.80;1.60;;;;;;;16.78;90.75;101435.25;5023797;28;20034;-61
2022/10/05 08:58:40;;;;;;;3.17;2.13;;;;;;;16.89;90.15;101458.69;5029055;28;20033;-63
2022/10/05 09:01:11;;;;;;;4.13;1.67;;;;;;;17.03;89.11;101447.31;5028672;28;20083;-61
2022/10/05 09:03:59;;;;;;;3.17;1.85;;;;;;;16.99;89.87;101443.09;5028919;28;20104;-59
2022/10/05 09:06:44;;;;;;;3.03;1.60;;;;;;;17.04;88.35;101446.38;5027671;28;20028;-61
2022/10/05 09:09:29;;;;;;;4.03;1.40;;;;;;;17.15;88.33;101430.72;5027181;28;20075;-63
2022/10/05 09:12:24;;;;;;;1.67;1.40;;;;;;;17.16;88.40;101437.78;5027473;28;20096;-61
2022/10/05 09:15:29;;;;;;;3.03;1.40;;;;;;;17.34;86.93;101432.41;5028967;28;20073;-63
2022/10/05 09:18:06;;;;;;;1.90;1.45;;;;;;;17.37;86.44;101448.22;5028525;28;20033;-62
2022/10/05 09:20:39;;;;;;;3.72;1.40;;;;;;;17.43;85.74;101421.25;5028972;28;20021;-63
2022/10/05 09:23:11;;;;;;;2.20;1.20;;;;;;;17.46;86.23;101420.22;5028260;28;20029;-60
2022/10/05 09:25:56;;;;;;;1.80;1.50;;;;;;;17.39;86.50;101443.69;5029373;28;20030;-61
2022/10/05 09:28:21;;;;;;;1.25;1.15;;;;;;;17.56;86.26;101441.94;5028681;28;20033;-60
2022/10/05 09:31:08;;;;;;;2.05;1.40;;;;;;;17.38;86.81;101434.00;5029743;28;20502;-61
2022/10/05 09:33:53;;;;;;;3.72;1.45;;;;;;;17.38;87.28;101428.66;5029446;28;20087;-62
2022/10/05 09:36:46;;;;;;;2.22;1.35;;;;;;;17.51;86.41;101425.31;5027154;28;20021;-62
2022/10/05 09:39:14;;;;;;;3.25;1.40;;;;;;;17.36;85.98;101419.00;5028375;28;20063;-61
2022/10/05 09:41:42;;;;;;;3.25;1.30;;;;;;;17.37;85.85;101442.91;5029017;28;20120;-62
2022/10/05 09:44:32;;;;;;;2.25;1.38;;;;;;;17.31;86.61;101435.25;5029248;28;20091;-61
2022/10/05 09:47:12;;;;;;;7.38;1.50;;;;;;;17.45;85.38;101454.97;5028602;28;20418;-62
2022/10/05 09:49:47;;;;;;;3.08;1.40;;;;;;;17.36;84.86;101435.84;5026616;28;20052;-61
2022/10/05 09:52:43;;;;;;;3.63;1.10;;;;;;;17.40;84.80;101437.41;5027511;28;20472;-61
2022/10/05 09:55:39;;;;;;;2.70;1.17;;;;;;;17.36;84.98;101435.84;5011983;28;20207;-60
2022/10/05 09:58:42;;;;;;;2.92;1.30;;;;;;;17.33;85.44;101444.00;5028688;28;20041;-62
2022/10/05 10:01:44;;;;;;;1.63;0.90;;;;;;;17.27;85.82;101437.22;5027489;28;20558;-60
2022/10/05 10:04:16;;;;;;;3.70;1.73;;;;;;;17.14;86.10;101437.00;5028632;28;20514;-60
2022/10/05 10:06:53;;;;;;;4.68;1.13;;;;;;;17.23;86.99;101427.66;5028733;28;20034;-60
2022/10/05 10:09:40;;;;;;;8.43;1.60;;;;;;;17.25;86.38;101425.78;5027401;28;20025;-62
2022/10/05 10:12:29;;;;;;;3.92;1.48;;;;;;;17.14;86.65;101438.81;5024817;28;20037;-61
2022/10/05 10:15:06;;;;;;;5.38;1.50;;;;;;;17.10;86.78;101426.59;5028830;28;20467;-59
2022/10/05 10:17:43;;;;;;;3.70;1.20;;;;;;;17.09;88.27;101419.53;5026722;28;20021;-59
2022/10/05 10:20:32;;;;;;;2.95;1.60;;;;;;;17.07;88.27;101419.63;5024081;28;20032;-61
2022/10/05 10:23:35;;;;;;;2.40;1.58;;;;;;;16.98;88.71;101414.75;5025240;28;20029;-62
2022/10/05 10:26:35;;;;;;;8.23;2.17;;;;;;;16.89;88.87;101416.94;5028158;28;20038;-59
2022/10/05 10:29:24;;;;;;;7.78;2.20;;;;;;;16.74;89.73;101412.41;5028685;28;20561;-60
2022/10/05 10:32:06;;;;;;;4.55;1.88;;;;;;;16.75;90.31;101409.69;5026997;28;20171;-60
2022/10/05 10:34:49;;;;;;;6.57;1.95;;;;;;;16.84;90.27;101416.31;5027620;28;20057;-59
2022/10/05 10:37:45;;;;;;;4.88;1.92;;;;;;;16.82;90.58;101410.22;5028424;28;20098;-61
2022/10/05 10:40:36;;;;;;;4.78;1.88;;;;;;;16.60;91.91;101408.66;5026743;28;20034;-60
2022/10/05 10:43:39;;;;;;;6.07;1.80;;;;;;;16.74;91.88;101417.75;5023269;28;20380;-59
2022/10/05 10:46:33;;;;;;;4.45;2.00;;;;;;;16.77;91.78;101401.63;5028087;28;20033;-60
2022/10/05 10:49:23;;;;;;;3.00;2.13;;;;;;;16.79;91.49;101402.38;5026094;28;20380;-62
2022/10/05 10:51:55;;;;;;;7.47;2.13;;;;;;;16.85;91.65;101404.72;5023708;28;20079;-63
2022/10/05 10:54:30;;;;;;;2.17;1.95;;;;;;;16.79;92.57;101405.91;5024840;28;20026;-61
2022/10/05 10:57:05;;;;;;;8.32;2.28;;;;;;;16.92;92.32;101399.97;5026284;28;20037;-63
2022/10/05 10:59:59;;;;;;;2.42;1.90;;;;;;;16.96;91.89;101400.66;5024967;28;20032;-63
2022/10/05 11:03:10;;;;;;;5.05;2.00;;;;;;;17.08;90.89;101415.16;4972245;28;20043;-61
2022/10/05 11:05:39;;;;;;;5.00;2.42;;;;;;;17.02;90.98;101406.53;5024164;28;20041;-62
2022/10/05 11:08:35;;;;;;;10.30;2.88;;;;;;;16.98;91.76;101409.44;5026851;28;20025;-61
2022/10/05 11:11:07;;;;;;;7.82;2.72;;;;;;;17.02;91.60;101409.19;5025885;28;20022;-59
2022/10/05 11:14:01;;;;;;;6.03;2.45;;;;;;;16.95;90.90;101412.25;5015529;28;20143;-60
2022/10/05 11:16:43;;;;;;;3.97;2.40;;;;;;;17.04;90.92;101422.44;5024535;28;20024;-61
2022/10/05 11:19:44;;;;;;;6.55;2.50;;;;;;;17.04;91.23;101398.47;5021742;28;20709;-61
2022/10/05 11:22:23;;;;;;;7.93;2.25;;;;;;;16.95;90.86;101402.47;4992544;28;20387;-59
2022/10/05 11:25:01;;;;;;;3.70;2.55;;;;;;;16.92;91.22;101403.47;5026919;28;20029;-63
2022/10/05 11:27:52;;;;;;;7.03;2.40;;;;;;;16.98;91.57;101396.13;5027646;28;20037;-61
2022/10/05 11:31:04;;;;;;;5.05;2.03;;;;;;;17.13;91.08;101390.00;5026300;28;20416;-61
2022/10/05 11:33:57;;;;;;;6.38;2.40;;;;;;;17.11;90.26;101399.88;5021099;28;20250;-61
2022/10/05 11:36:59;;;;;;;7.82;2.40;;;;;;;17.17;89.57;101390.72;5026473;28;20028;-60
2022/10/05 11:39:32;;;;;;;4.97;2.60;;;;;;;17.23;90.56;101386.84;5023734;28;20041;-60
2022/10/05 11:42:11;;;;;;;4.72;2.53;;;;;;;17.28;89.62;101383.00;5025972;28;20037;-62
2022/10/05 11:44:56;;;;;;;9.23;2.40;;;;;;;17.35;89.77;101385.34;5026544;28;20025;-63
2022/10/05 11:47:36;;;;;;;5.28;2.53;;;;;;;17.35;90.23;101375.56;5027255;28;20518;-63
2022/10/05 11:50:19;;;;;;;5.80;2.72;;;;;;;17.43;89.12;101370.66;5023210;28;20397;-62
2022/10/05 11:52:51;;;;;;;4.05;2.67;;;;;;;17.51;89.30;101382.69;5019279;28;20137;-64
2022/10/05 11:55:29;;;;;;;5.13;2.60;;;;;;;17.52;88.95;101347.13;5028724;28;20018;-63
2022/10/05 11:57:59;;;;;;;7.75;2.85;;;;;;;17.54;88.79;101378.06;5026511;28;20028;-61
2022/10/05 12:00:36;;;;;;;6.82;2.95;;;;;;;17.49;88.91;101377.44;5026141;28;20452;-61
2022/10/05 12:03:19;;;;;;;4.70;2.42;;;;;;;17.59;88.85;101366.28;5025985;28;20032;-62
2022/10/05 12:05:53;;;;;;;11.27;3.10;;;;;;;17.52;89.04;101371.13;5025421;28;20547;-62
2022/10/05 12:08:49;;;;;;;4.97;2.60;;;;;;;17.63;88.76;101367.84;5025629;28;20052;-62
2022/10/05 12:11:52;;;;;;;9.95;2.85;;;;;;;17.59;89.20;101367.16;5026180;28;20031;-62
2022/10/05 12:14:32;;;;;;;4.90;2.35;;;;;;;17.66;88.96;101360.53;5025270;28;20042;-62
2022/10/05 12:17:10;;;;;;;4.20;2.38;;;;;;;17.64;88.65;101366.91;5026856;28;20029;-62
2022/10/05 12:19:47;;;;;;;4.65;2.50;;;;;;;17.71;88.02;101349.63;5026285;28;20108;-59
2022/10/05 12:22:20;;;;;;;3.42;2.45;;;;;;;17.66;87.94;101362.34;5025774;28;20394;-61
2022/10/05 12:25:00;;;;;;;6.05;2.88;;;;;;;17.51;88.53;101350.72;5026885;28;20049;-61